This is the latest recevied weather packets stored in our database for station/object KY0TEQ-13. If no packets are shown the sender has not sent any weather packets the latest 10 day(s).
| Time | Temp. | Humidity | Pressure | Rain* | Wind** | Luminosity | Snow |
|---|---|---|---|---|---|---|---|
| 1778005524 | 13.33° C | 26% | 1296.5 hPa | 0 mm | - | 471 W/m² | - |
| 1778005221 | 12.78° C | 25% | 1296.6 hPa | 0 mm | - | 587 W/m² | - |
| 1778004917 | 13.89° C | 25% | 1296.5 hPa | 0 mm | - | 910 W/m² | - |
| 1778004614 | 13.89° C | 25% | 1296.6 hPa | 0 mm | - | 729 W/m² | - |
| 1778004310 | 13.89° C | 26% | 1296.4 hPa | 0 mm | - | 873 W/m² | - |
| 1778004009 | 13.33° C | 25% | 1296.5 hPa | 0 mm | - | 782 W/m² | - |
| 1778003703 | 12.78° C | 25% | 1296.5 hPa | 0 mm | - | 786 W/m² | - |
| 1778003401 | 12.22° C | 27% | 1296.7 hPa | 0 mm | - | 726 W/m² | - |
| 1778003097 | 12.78° C | 27% | 1296.6 hPa | 0 mm | - | 804 W/m² | - |
| 1778002793 | 12.22° C | 26% | 1296.8 hPa | 0 mm | - | 733 W/m² | - |
| 1778002489 | 12.78° C | 26% | 1296.6 hPa | 0 mm | - | 724 W/m² | - |
| 1778002186 | 12.22° C | 28% | 1296.6 hPa | 0 mm | - | 408 W/m² | - |
| 1778001885 | 11.67° C | 28% | 1296.7 hPa | 0 mm | - | 380 W/m² | - |
| 1778001584 | 11.67° C | 28% | 1296.7 hPa | 0 mm | - | 335 W/m² | - |
| 1778001281 | 11.67° C | 29% | 1296.7 hPa | 0 mm | - | 306 W/m² | - |
| 1778000978 | 11.11° C | 28% | 1296.6 hPa | 0 mm | - | 280 W/m² | - |
| 1778000674 | 11.67° C | 26% | 1296.6 hPa | 0 mm | - | 314 W/m² | - |
| 1778000370 | 11.67° C | 26% | 1296.7 hPa | 0 mm | - | 364 W/m² | - |
| 1778000066 | 11.67° C | 26% | 1296.8 hPa | 0 mm | - | 361 W/m² | - |
| 1777999761 | 11.67° C | 26% | 1296.7 hPa | 0 mm | - | 346 W/m² | - |
| 1777999458 | 11.67° C | 27% | 1296.6 hPa | 0 mm | - | 351 W/m² | - |
| 1777999156 | 11.67° C | 28% | 1296.7 hPa | 0 mm | - | 318 W/m² | - |
| 1777998855 | 11.67° C | 31% | 1296.7 hPa | 0 mm | - | 323 W/m² | - |
| 1777998554 | 11.11° C | 29% | 1296.7 hPa | 0 mm | - | 385 W/m² | - |
| 1777998249 | 10.56° C | 29% | 1296.8 hPa | 0 mm | - | 278 W/m² | - |
* Rain latest hour (hover to see other rain measurements)
** Current wind speed in m/s (hover to see current wind gust speed)